sensor_id;sensor_type;location;lat;lon;timestamp;temperature;humidity
11387;DHT22;5748;53.102;8.456;2022-07-24T00:01:38;18.60;50.90
11387;DHT22;5748;53.102;8.456;2022-07-24T00:04:06;18.60;50.80
11387;DHT22;5748;53.102;8.456;2022-07-24T00:06:33;18.50;50.80
11387;DHT22;5748;53.102;8.456;2022-07-24T00:09:01;18.50;50.90
11387;DHT22;5748;53.102;8.456;2022-07-24T00:11:29;18.50;50.90
11387;DHT22;5748;53.102;8.456;2022-07-24T00:14:08;18.50;51.00
11387;DHT22;5748;53.102;8.456;2022-07-24T01:51:35;17.80;52.60
11387;DHT22;5748;53.102;8.456;2022-07-24T01:54:03;17.80;52.80
11387;DHT22;5748;53.102;8.456;2022-07-24T01:56:30;17.80;52.30
11387;DHT22;5748;53.102;8.456;2022-07-24T01:58:58;17.90;52.50
11387;DHT22;5748;53.102;8.456;2022-07-24T02:01:26;17.70;52.60
11387;DHT22;5748;53.102;8.456;2022-07-24T02:03:54;19.80;54.50
11387;DHT22;5748;53.102;8.456;2022-07-24T02:06:21;17.70;52.50
11387;DHT22;5748;53.102;8.456;2022-07-24T02:08:50;17.60;53.10
11387;DHT22;5748;53.102;8.456;2022-07-24T02:11:17;17.70;52.70
11387;DHT22;5748;53.102;8.456;2022-07-24T02:13:45;17.70;52.70
11387;DHT22;5748;53.102;8.456;2022-07-24T02:16:12;17.70;52.80
11387;DHT22;5748;53.102;8.456;2022-07-24T02:18:39;17.70;52.80
11387;DHT22;5748;53.102;8.456;2022-07-24T02:21:06;17.70;52.90
11387;DHT22;5748;53.102;8.456;2022-07-24T02:23:33;17.70;53.00
11387;DHT22;5748;53.102;8.456;2022-07-24T02:26:01;18.40;53.80
11387;DHT22;5748;53.102;8.456;2022-07-24T02:28:29;17.80;53.40
11387;DHT22;5748;53.102;8.456;2022-07-24T02:30:56;18.40;53.90
11387;DHT22;5748;53.102;8.456;2022-07-24T02:33:23;17.70;53.70
11387;DHT22;5748;53.102;8.456;2022-07-24T02:35:50;17.70;53.70
11387;DHT22;5748;53.102;8.456;2022-07-24T02:38:17;20.10;56.20
11387;DHT22;5748;53.102;8.456;2022-07-24T02:40:44;18.60;55.00
11387;DHT22;5748;53.102;8.456;2022-07-24T02:43:13;17.80;54.20
11387;DHT22;5748;53.102;8.456;2022-07-24T02:45:40;17.80;54.70
11387;DHT22;5748;53.102;8.456;2022-07-24T02:48:07;17.70;53.90
11387;DHT22;5748;53.102;8.456;2022-07-24T02:50:34;19.10;55.20
11387;DHT22;5748;53.102;8.456;2022-07-24T02:53:04;17.80;53.70
11387;DHT22;5748;53.102;8.456;2022-07-24T02:55:31;17.70;53.70
11387;DHT22;5748;53.102;8.456;2022-07-24T02:57:58;18.70;54.90
11387;DHT22;5748;53.102;8.456;2022-07-24T03:00:27;18.20;54.60
11387;DHT22;5748;53.102;8.456;2022-07-24T03:02:54;17.90;54.70
11387;DHT22;5748;53.102;8.456;2022-07-24T03:05:21;19.00;54.70
11387;DHT22;5748;53.102;8.456;2022-07-24T03:07:48;17.90;53.80
11387;DHT22;5748;53.102;8.456;2022-07-24T03:10:16;18.10;54.00
11387;DHT22;5748;53.102;8.456;2022-07-24T03:12:43;17.90;54.10
11387;DHT22;5748;53.102;8.456;2022-07-24T03:15:11;18.60;55.00
11387;DHT22;5748;53.102;8.456;2022-07-24T03:17:48;20.20;56.30
11387;DHT22;5748;53.102;8.456;2022-07-24T03:20:17;19.10;55.80
11387;DHT22;5748;53.102;8.456;2022-07-24T03:22:44;18.30;54.90
11387;DHT22;5748;53.102;8.456;2022-07-24T03:25:11;17.80;54.20
11387;DHT22;5748;53.102;8.456;2022-07-24T03:27:39;18.60;54.80
11387;DHT22;5748;53.102;8.456;2022-07-24T03:30:07;17.90;54.30
11387;DHT22;5748;53.102;8.456;2022-07-24T03:32:36;17.90;54.40
11387;DHT22;5748;53.102;8.456;2022-07-24T03:35:05;17.90;54.30
11387;DHT22;5748;53.102;8.456;2022-07-24T03:37:33;17.90;54.40
11387;DHT22;5748;53.102;8.456;2022-07-24T03:40:00;17.90;54.30
11387;DHT22;5748;53.102;8.456;2022-07-24T03:42:28;17.90;54.30
11387;DHT22;5748;53.102;8.456;2022-07-24T03:44:55;18.00;54.30
11387;DHT22;5748;53.102;8.456;2022-07-24T03:47:22;17.90;54.30
11387;DHT22;5748;53.102;8.456;2022-07-24T03:49:49;17.90;54.40
11387;DHT22;5748;53.102;8.456;2022-07-24T03:52:17;17.90;54.30
11387;DHT22;5748;53.102;8.456;2022-07-24T03:54:44;18.80;55.20
11387;DHT22;5748;53.102;8.456;2022-07-24T03:57:11;17.90;54.60
11387;DHT22;5748;53.102;8.456;2022-07-24T03:59:38;17.90;55.10
11387;DHT22;5748;53.102;8.456;2022-07-24T04:02:05;18.90;55.30
11387;DHT22;5748;53.102;8.456;2022-07-24T04:04:33;17.90;54.60
11387;DHT22;5748;53.102;8.456;2022-07-24T04:07:00;17.90;54.90
11387;DHT22;5748;53.102;8.456;2022-07-24T04:09:28;17.90;54.80
11387;DHT22;5748;53.102;8.456;2022-07-24T04:11:55;18.00;55.70
11387;DHT22;5748;53.102;8.456;2022-07-24T04:14:22;18.80;56.80
11387;DHT22;5748;53.102;8.456;2022-07-24T04:16:49;18.10;55.80
11387;DHT22;5748;53.102;8.456;2022-07-24T04:19:17;18.00;55.00
11387;DHT22;5748;53.102;8.456;2022-07-24T04:21:44;19.00;56.40
11387;DHT22;5748;53.102;8.456;2022-07-24T04:24:11;18.00;55.40
11387;DHT22;5748;53.102;8.456;2022-07-24T04:26:39;18.10;55.20
11387;DHT22;5748;53.102;8.456;2022-07-24T04:29:06;18.10;55.30
11387;DHT22;5748;53.102;8.456;2022-07-24T04:31:34;18.20;55.20
11387;DHT22;5748;53.102;8.456;2022-07-24T04:34:01;18.20;55.20
11387;DHT22;5748;53.102;8.456;2022-07-24T04:36:28;18.20;55.20
11387;DHT22;5748;53.102;8.456;2022-07-24T04:38:55;18.30;55.30
11387;DHT22;5748;53.102;8.456;2022-07-24T04:41:22;18.30;55.50
11387;DHT22;5748;53.102;8.456;2022-07-24T04:43:50;18.60;55.70
11387;DHT22;5748;53.102;8.456;2022-07-24T04:46:17;19.20;56.80
11387;DHT22;5748;53.102;8.456;2022-07-24T04:48:45;18.40;55.70
11387;DHT22;5748;53.102;8.456;2022-07-24T04:51:12;18.50;55.70
11387;DHT22;5748;53.102;8.456;2022-07-24T04:53:39;18.60;55.80
11387;DHT22;5748;53.102;8.456;2022-07-24T04:56:06;18.60;56.00
11387;DHT22;5748;53.102;8.456;2022-07-24T04:58:33;18.60;56.10
11387;DHT22;5748;53.102;8.456;2022-07-24T05:01:02;18.70;56.00
11387;DHT22;5748;53.102;8.456;2022-07-24T05:03:29;19.30;57.00
11387;DHT22;5748;53.102;8.456;2022-07-24T05:05:56;18.80;56.30
11387;DHT22;5748;53.102;8.456;2022-07-24T05:08:24;19.80;57.90
11387;DHT22;5748;53.102;8.456;2022-07-24T05:10:51;19.30;57.20
11387;DHT22;5748;53.102;8.456;2022-07-24T05:13:18;19.10;57.40
11387;DHT22;5748;53.102;8.456;2022-07-24T05:15:45;19.10;57.00
11387;DHT22;5748;53.102;8.456;2022-07-24T05:18:13;19.20;57.70
11387;DHT22;5748;53.102;8.456;2022-07-24T05:20:40;19.20;56.40
11387;DHT22;5748;53.102;8.456;2022-07-24T05:23:07;19.30;57.10
11387;DHT22;5748;53.102;8.456;2022-07-24T05:25:35;19.40;57.20
11387;DHT22;5748;53.102;8.456;2022-07-24T05:28:02;19.80;57.70
11387;DHT22;5748;53.102;8.456;2022-07-24T05:30:30;20.00;57.50
11387;DHT22;5748;53.102;8.456;2022-07-24T05:32:57;19.60;56.90
11387;DHT22;5748;53.102;8.456;2022-07-24T05:35:25;19.70;57.00
11387;DHT22;5748;53.102;8.456;2022-07-24T05:37:52;19.90;58.50
11387;DHT22;5748;53.102;8.456;2022-07-24T05:40:19;20.10;58.30
11387;DHT22;5748;53.102;8.456;2022-07-24T05:42:46;20.20;57.90
11387;DHT22;5748;53.102;8.456;2022-07-24T05:45:13;20.40;58.30
11387;DHT22;5748;53.102;8.456;2022-07-24T05:47:41;20.70;58.70
11387;DHT22;5748;53.102;8.456;2022-07-24T05:50:09;20.90;58.60
11387;DHT22;5748;53.102;8.456;2022-07-24T05:52:39;21.10;58.50
11387;DHT22;5748;53.102;8.456;2022-07-24T05:55:08;21.20;58.20
11387;DHT22;5748;53.102;8.456;2022-07-24T05:57:35;21.50;58.00
11387;DHT22;5748;53.102;8.456;2022-07-24T06:00:03;21.70;58.00
11387;DHT22;5748;53.102;8.456;2022-07-24T06:02:31;21.80;57.90
11387;DHT22;5748;53.102;8.456;2022-07-24T06:04:58;22.00;57.90
11387;DHT22;5748;53.102;8.456;2022-07-24T06:07:25;22.20;58.30
11387;DHT22;5748;53.102;8.456;2022-07-24T06:09:53;22.50;59.00
11387;DHT22;5748;53.102;8.456;2022-07-24T06:12:20;22.70;58.40
11387;DHT22;5748;53.102;8.456;2022-07-24T06:14:48;23.00;59.20
11387;DHT22;5748;53.102;8.456;2022-07-24T06:17:15;23.40;59.10
11387;DHT22;5748;53.102;8.456;2022-07-24T06:19:42;23.60;58.90
11387;DHT22;5748;53.102;8.456;2022-07-24T06:22:09;23.90;59.10
11387;DHT22;5748;53.102;8.456;2022-07-24T06:24:36;24.20;58.90
11387;DHT22;5748;53.102;8.456;2022-07-24T06:27:04;24.60;59.70
11387;DHT22;5748;53.102;8.456;2022-07-24T06:29:32;24.90;59.20
11387;DHT22;5748;53.102;8.456;2022-07-24T06:31:59;25.20;59.20
11387;DHT22;5748;53.102;8.456;2022-07-24T06:34:26;25.50;58.30
11387;DHT22;5748;53.102;8.456;2022-07-24T06:36:53;25.80;58.10
11387;DHT22;5748;53.102;8.456;2022-07-24T06:39:20;26.10;58.80
11387;DHT22;5748;53.102;8.456;2022-07-24T06:41:47;26.20;57.20
11387;DHT22;5748;53.102;8.456;2022-07-24T06:44:16;26.50;57.70
11387;DHT22;5748;53.102;8.456;2022-07-24T06:46:43;26.60;57.00
11387;DHT22;5748;53.102;8.456;2022-07-24T06:49:10;26.80;56.60
11387;DHT22;5748;53.102;8.456;2022-07-24T06:51:37;27.60;56.60
11387;DHT22;5748;53.102;8.456;2022-07-24T06:54:04;27.10;55.80
11387;DHT22;5748;53.102;8.456;2022-07-24T06:56:32;27.30;56.80
11387;DHT22;5748;53.102;8.456;2022-07-24T06:58:59;27.50;55.70
11387;DHT22;5748;53.102;8.456;2022-07-24T07:01:27;28.00;56.60
11387;DHT22;5748;53.102;8.456;2022-07-24T07:03:55;27.80;55.00
11387;DHT22;5748;53.102;8.456;2022-07-24T07:06:22;28.00;55.10
11387;DHT22;5748;53.102;8.456;2022-07-24T07:08:49;28.20;55.00
11387;DHT22;5748;53.102;8.456;2022-07-24T07:11:15;28.40;54.90
11387;DHT22;5748;53.102;8.456;2022-07-24T07:13:43;28.60;55.00
11387;DHT22;5748;53.102;8.456;2022-07-24T07:16:09;28.80;54.90
11387;DHT22;5748;53.102;8.456;2022-07-24T07:18:38;29.00;54.80
11387;DHT22;5748;53.102;8.456;2022-07-24T07:21:05;29.20;53.90
11387;DHT22;5748;53.102;8.456;2022-07-24T07:23:32;29.40;53.40
11387;DHT22;5748;53.102;8.456;2022-07-24T07:25:59;29.40;52.60
11387;DHT22;5748;53.102;8.456;2022-07-24T07:28:26;29.40;52.00
11387;DHT22;5748;53.102;8.456;2022-07-24T07:30:53;29.40;51.70
11387;DHT22;5748;53.102;8.456;2022-07-24T07:33:20;29.30;51.40
11387;DHT22;5748;53.102;8.456;2022-07-24T07:35:48;29.20;51.10
11387;DHT22;5748;53.102;8.456;2022-07-24T07:38:16;29.20;51.00
11387;DHT22;5748;53.102;8.456;2022-07-24T07:40:43;29.00;50.70
11387;DHT22;5748;53.102;8.456;2022-07-24T07:43:10;28.90;50.50
11387;DHT22;5748;53.102;8.456;2022-07-24T07:45:37;28.80;50.50
11387;DHT22;5748;53.102;8.456;2022-07-24T07:48:05;28.70;51.20
11387;DHT22;5748;53.102;8.456;2022-07-24T07:50:32;28.60;50.30
11387;DHT22;5748;53.102;8.456;2022-07-24T07:53:00;28.50;50.60
11387;DHT22;5748;53.102;8.456;2022-07-24T07:55:27;28.40;50.50
11387;DHT22;5748;53.102;8.456;2022-07-24T07:57:55;28.30;50.60
11387;DHT22;5748;53.102;8.456;2022-07-24T08:00:22;28.30;50.80
11387;DHT22;5748;53.102;8.456;2022-07-24T08:02:49;28.20;50.70
11387;DHT22;5748;53.102;8.456;2022-07-24T08:05:16;28.20;50.70
11387;DHT22;5748;53.102;8.456;2022-07-24T08:07:43;28.20;50.80
11387;DHT22;5748;53.102;8.456;2022-07-24T08:10:12;28.10;50.90
11387;DHT22;5748;53.102;8.456;2022-07-24T08:12:38;28.10;51.10
11387;DHT22;5748;53.102;8.456;2022-07-24T08:15:06;28.10;50.90
11387;DHT22;5748;53.102;8.456;2022-07-24T08:17:34;28.10;50.90
11387;DHT22;5748;53.102;8.456;2022-07-24T08:20:02;28.20;51.00
11387;DHT22;5748;53.102;8.456;2022-07-24T08:22:29;28.20;51.00
11387;DHT22;5748;53.102;8.456;2022-07-24T08:24:56;28.20;51.10
11387;DHT22;5748;53.102;8.456;2022-07-24T08:27:24;28.20;50.90
11387;DHT22;5748;53.102;8.456;2022-07-24T08:29:51;28.20;50.70
11387;DHT22;5748;53.102;8.456;2022-07-24T08:32:19;28.30;50.90
11387;DHT22;5748;53.102;8.456;2022-07-24T08:34:46;28.40;50.90
11387;DHT22;5748;53.102;8.456;2022-07-24T08:37:13;28.40;50.80
11387;DHT22;5748;53.102;8.456;2022-07-24T08:39:40;28.40;50.70
11387;DHT22;5748;53.102;8.456;2022-07-24T08:42:07;28.60;50.80
11387;DHT22;5748;53.102;8.456;2022-07-24T08:44:38;28.60;50.70
11387;DHT22;5748;53.102;8.456;2022-07-24T08:47:06;28.60;50.50
11387;DHT22;5748;53.102;8.456;2022-07-24T08:49:35;28.70;50.60
11387;DHT22;5748;53.102;8.456;2022-07-24T08:52:05;28.70;50.20
11387;DHT22;5748;53.102;8.456;2022-07-24T08:54:34;28.80;50.50
11387;DHT22;5748;53.102;8.456;2022-07-24T08:57:01;28.80;50.50
11387;DHT22;5748;53.102;8.456;2022-07-24T08:59:28;28.20;49.90
11387;DHT22;5748;53.102;8.456;2022-07-24T09:01:57;29.00;50.10
11387;DHT22;5748;53.102;8.456;2022-07-24T09:04:34;29.00;50.10
11387;DHT22;5748;53.102;8.456;2022-07-24T09:07:05;29.10;49.70
11387;DHT22;5748;53.102;8.456;2022-07-24T09:09:33;29.20;50.20
11387;DHT22;5748;53.102;8.456;2022-07-24T09:12:08;29.20;50.10
11387;DHT22;5748;53.102;8.456;2022-07-24T09:14:39;29.30;49.90
11387;DHT22;5748;53.102;8.456;2022-07-24T09:17:10;29.40;49.90
11387;DHT22;5748;53.102;8.456;2022-07-24T09:19:50;29.50;49.90
11387;DHT22;5748;53.102;8.456;2022-07-24T09:22:32;29.60;49.70
11387;DHT22;5748;53.102;8.456;2022-07-24T09:25:12;29.80;49.20
11387;DHT22;5748;53.102;8.456;2022-07-24T09:27:45;29.90;49.10
11387;DHT22;5748;53.102;8.456;2022-07-24T09:30:26;30.00;49.40
11387;DHT22;5748;53.102;8.456;2022-07-24T09:32:58;30.10;48.20
11387;DHT22;5748;53.102;8.456;2022-07-24T09:35:30;30.20;49.10
11387;DHT22;5748;53.102;8.456;2022-07-24T09:38:00;30.40;49.00
11387;DHT22;5748;53.102;8.456;2022-07-24T09:40:29;30.50;48.80
11387;DHT22;5748;53.102;8.456;2022-07-24T09:43:19;30.60;48.80
11387;DHT22;5748;53.102;8.456;2022-07-24T09:45:53;30.70;48.20
11387;DHT22;5748;53.102;8.456;2022-07-24T09:48:29;30.90;48.40
11387;DHT22;5748;53.102;8.456;2022-07-24T09:50:59;31.00;48.50
11387;DHT22;5748;53.102;8.456;2022-07-24T09:53:29;31.10;48.60
11387;DHT22;5748;53.102;8.456;2022-07-24T09:56:03;31.20;48.00
11387;DHT22;5748;53.102;8.456;2022-07-24T09:58:33;31.30;47.70
11387;DHT22;5748;53.102;8.456;2022-07-24T10:01:01;31.40;47.60
11387;DHT22;5748;53.102;8.456;2022-07-24T10:03:31;31.50;48.00
11387;DHT22;5748;53.102;8.456;2022-07-24T10:06:02;31.60;47.40
11387;DHT22;5748;53.102;8.456;2022-07-24T10:08:31;31.70;47.30
11387;DHT22;5748;53.102;8.456;2022-07-24T10:10:59;31.80;47.50
11387;DHT22;5748;53.102;8.456;2022-07-24T10:13:27;31.90;47.40
11387;DHT22;5748;53.102;8.456;2022-07-24T10:16:06;32.00;46.70
11387;DHT22;5748;53.102;8.456;2022-07-24T10:18:47;32.10;46.70
11387;DHT22;5748;53.102;8.456;2022-07-24T10:21:16;32.20;46.50
11387;DHT22;5748;53.102;8.456;2022-07-24T10:24:12;32.30;46.40
11387;DHT22;5748;53.102;8.456;2022-07-24T10:27:23;32.30;45.70
11387;DHT22;5748;53.102;8.456;2022-07-24T10:29:53;32.50;45.10
11387;DHT22;5748;53.102;8.456;2022-07-24T10:32:22;32.50;46.00
11387;DHT22;5748;53.102;8.456;2022-07-24T10:35:00;32.50;46.10
11387;DHT22;5748;53.102;8.456;2022-07-24T10:37:42;32.70;46.40
11387;DHT22;5748;53.102;8.456;2022-07-24T10:40:20;32.80;46.10
11387;DHT22;5748;53.102;8.456;2022-07-24T10:43:13;32.90;45.60
11387;DHT22;5748;53.102;8.456;2022-07-24T10:45:43;33.00;45.20
11387;DHT22;5748;53.102;8.456;2022-07-24T10:48:28;33.10;45.40
11387;DHT22;5748;53.102;8.456;2022-07-24T10:51:11;33.30;44.60
11387;DHT22;5748;53.102;8.456;2022-07-24T10:53:46;33.40;44.00
11387;DHT22;5748;53.102;8.456;2022-07-24T10:56:19;33.60;44.80
11387;DHT22;5748;53.102;8.456;2022-07-24T10:58:55;33.80;45.60
11387;DHT22;5748;53.102;8.456;2022-07-24T11:01:32;34.00;45.90
11387;DHT22;5748;53.102;8.456;2022-07-24T11:06:54;34.50;45.00
11387;DHT22;5748;53.102;8.456;2022-07-24T11:09:22;35.00;44.90
11387;DHT22;5748;53.102;8.456;2022-07-24T11:12:05;35.40;45.30
11387;DHT22;5748;53.102;8.456;2022-07-24T11:14:49;35.70;43.90
11387;DHT22;5748;53.102;8.456;2022-07-24T11:17:36;36.10;40.60
11387;DHT22;5748;53.102;8.456;2022-07-24T11:20:06;36.50;42.70
11387;DHT22;5748;53.102;8.456;2022-07-24T11:22:40;36.80;44.50
11387;DHT22;5748;53.102;8.456;2022-07-24T11:25:12;37.20;42.60
11387;DHT22;5748;53.102;8.456;2022-07-24T11:27:57;37.60;43.60
11387;DHT22;5748;53.102;8.456;2022-07-24T11:30:26;38.10;42.20
11387;DHT22;5748;53.102;8.456;2022-07-24T11:32:54;38.50;42.90
11387;DHT22;5748;53.102;8.456;2022-07-24T11:35:33;39.00;43.00
11387;DHT22;5748;53.102;8.456;2022-07-24T11:38:05;39.50;41.50
11387;DHT22;5748;53.102;8.456;2022-07-24T11:40:34;39.90;41.30
11387;DHT22;5748;53.102;8.456;2022-07-24T11:43:02;40.30;41.60
11387;DHT22;5748;53.102;8.456;2022-07-24T11:45:31;40.70;41.20
11387;DHT22;5748;53.102;8.456;2022-07-24T11:47:58;41.10;40.30
11387;DHT22;5748;53.102;8.456;2022-07-24T11:50:26;41.40;39.30
11387;DHT22;5748;53.102;8.456;2022-07-24T11:52:53;41.70;38.90
11387;DHT22;5748;53.102;8.456;2022-07-24T11:55:24;42.00;39.00
11387;DHT22;5748;53.102;8.456;2022-07-24T11:57:53;42.30;38.10
11387;DHT22;5748;53.102;8.456;2022-07-24T12:00:23;42.50;37.90
11387;DHT22;5748;53.102;8.456;2022-07-24T12:02:54;42.70;37.30
11387;DHT22;5748;53.102;8.456;2022-07-24T12:05:24;42.80;36.50
11387;DHT22;5748;53.102;8.456;2022-07-24T12:07:52;42.90;36.30
11387;DHT22;5748;53.102;8.456;2022-07-24T12:10:23;43.10;35.70
11387;DHT22;5748;53.102;8.456;2022-07-24T12:12:52;43.10;34.90
11387;DHT22;5748;53.102;8.456;2022-07-24T12:15:22;43.10;34.80
11387;DHT22;5748;53.102;8.456;2022-07-24T12:17:56;43.20;34.60
11387;DHT22;5748;53.102;8.456;2022-07-24T12:20:27;43.20;32.80
11387;DHT22;5748;53.102;8.456;2022-07-24T12:22:56;43.30;34.10
11387;DHT22;5748;53.102;8.456;2022-07-24T12:25:25;43.40;33.90
11387;DHT22;5748;53.102;8.456;2022-07-24T12:28:03;43.50;33.00
11387;DHT22;5748;53.102;8.456;2022-07-24T12:30:32;43.50;29.20
11387;DHT22;5748;53.102;8.456;2022-07-24T12:33:02;43.60;33.00
11387;DHT22;5748;53.102;8.456;2022-07-24T12:35:32;43.70;32.50
11387;DHT22;5748;53.102;8.456;2022-07-24T12:38:01;43.70;32.70
11387;DHT22;5748;53.102;8.456;2022-07-24T12:40:33;43.80;32.00
11387;DHT22;5748;53.102;8.456;2022-07-24T12:43:07;43.80;30.60
11387;DHT22;5748;53.102;8.456;2022-07-24T12:45:36;43.80;30.50
11387;DHT22;5748;53.102;8.456;2022-07-24T12:48:09;43.80;31.00
11387;DHT22;5748;53.102;8.456;2022-07-24T12:50:58;43.80;30.20
11387;DHT22;5748;53.102;8.456;2022-07-24T12:53:30;43.80;30.70
11387;DHT22;5748;53.102;8.456;2022-07-24T12:56:11;43.80;31.60
11387;DHT22;5748;53.102;8.456;2022-07-24T12:59:00;43.90;30.00
11387;DHT22;5748;53.102;8.456;2022-07-24T13:01:45;43.90;29.20
11387;DHT22;5748;53.102;8.456;2022-07-24T13:04:15;43.90;29.90
11387;DHT22;5748;53.102;8.456;2022-07-24T13:06:45;44.00;30.60
11387;DHT22;5748;53.102;8.456;2022-07-24T13:09:14;43.90;30.00
11387;DHT22;5748;53.102;8.456;2022-07-24T13:11:44;43.90;30.00
11387;DHT22;5748;53.102;8.456;2022-07-24T13:14:14;43.80;29.90
11387;DHT22;5748;53.102;8.456;2022-07-24T13:16:43;43.80;30.20
11387;DHT22;5748;53.102;8.456;2022-07-24T13:19:11;43.50;29.60
11387;DHT22;5748;53.102;8.456;2022-07-24T13:21:40;43.30;29.10
11387;DHT22;5748;53.102;8.456;2022-07-24T13:24:10;42.90;29.20
11387;DHT22;5748;53.102;8.456;2022-07-24T13:26:39;42.50;28.60
11387;DHT22;5748;53.102;8.456;2022-07-24T13:29:09;42.10;29.00
11387;DHT22;5748;53.102;8.456;2022-07-24T13:31:38;41.60;28.70
11387;DHT22;5748;53.102;8.456;2022-07-24T13:34:05;41.00;29.10
11387;DHT22;5748;53.102;8.456;2022-07-24T13:36:32;40.60;29.30
11387;DHT22;5748;53.102;8.456;2022-07-24T13:39:00;40.20;29.40
11387;DHT22;5748;53.102;8.456;2022-07-24T13:41:27;39.80;29.60
11387;DHT22;5748;53.102;8.456;2022-07-24T13:43:54;39.40;29.70
11387;DHT22;5748;53.102;8.456;2022-07-24T13:46:23;39.10;29.90
11387;DHT22;5748;53.102;8.456;2022-07-24T13:48:50;38.70;29.90
11387;DHT22;5748;53.102;8.456;2022-07-24T13:51:17;38.40;30.10
11387;DHT22;5748;53.102;8.456;2022-07-24T13:53:45;38.10;30.40
11387;DHT22;5748;53.102;8.456;2022-07-24T13:56:12;37.90;30.60
11387;DHT22;5748;53.102;8.456;2022-07-24T13:58:39;37.60;30.80
11387;DHT22;5748;53.102;8.456;2022-07-24T14:01:08;37.40;30.90
11387;DHT22;5748;53.102;8.456;2022-07-24T14:03:37;37.20;31.10
11387;DHT22;5748;53.102;8.456;2022-07-24T14:06:05;37.00;31.10
11387;DHT22;5748;53.102;8.456;2022-07-24T14:08:32;36.80;31.20
11387;DHT22;5748;53.102;8.456;2022-07-24T14:10:59;36.70;32.20
11387;DHT22;5748;53.102;8.456;2022-07-24T14:13:26;36.50;32.30
11387;DHT22;5748;53.102;8.456;2022-07-24T14:15:54;36.40;31.90
11387;DHT22;5748;53.102;8.456;2022-07-24T14:18:21;36.30;32.00
11387;DHT22;5748;53.102;8.456;2022-07-24T14:20:49;36.20;32.20
11387;DHT22;5748;53.102;8.456;2022-07-24T14:23:16;36.20;32.40
11387;DHT22;5748;53.102;8.456;2022-07-24T14:25:44;36.10;32.40
11387;DHT22;5748;53.102;8.456;2022-07-24T14:28:12;36.00;32.40
11387;DHT22;5748;53.102;8.456;2022-07-24T14:30:39;36.00;32.50
11387;DHT22;5748;53.102;8.456;2022-07-24T14:33:06;35.90;33.20
11387;DHT22;5748;53.102;8.456;2022-07-24T14:35:34;35.80;32.60
11387;DHT22;5748;53.102;8.456;2022-07-24T14:38:03;35.80;32.70
11387;DHT22;5748;53.102;8.456;2022-07-24T14:40:30;35.70;32.80
11387;DHT22;5748;53.102;8.456;2022-07-24T14:42:57;35.60;32.90
11387;DHT22;5748;53.102;8.456;2022-07-24T14:45:24;35.60;33.00
11387;DHT22;5748;53.102;8.456;2022-07-24T14:47:51;35.50;33.00
11387;DHT22;5748;53.102;8.456;2022-07-24T14:50:18;35.40;33.00
11387;DHT22;5748;53.102;8.456;2022-07-24T14:52:45;35.40;33.30
11387;DHT22;5748;53.102;8.456;2022-07-24T14:55:13;35.40;33.30
11387;DHT22;5748;53.102;8.456;2022-07-24T14:57:40;35.30;33.40
11387;DHT22;5748;53.102;8.456;2022-07-24T15:00:09;35.30;33.60
11387;DHT22;5748;53.102;8.456;2022-07-24T15:02:37;35.20;33.70
11387;DHT22;5748;53.102;8.456;2022-07-24T15:05:05;35.20;33.70
11387;DHT22;5748;53.102;8.456;2022-07-24T15:07:32;35.10;33.80
11387;DHT22;5748;53.102;8.456;2022-07-24T15:09:59;35.10;33.80
11387;DHT22;5748;53.102;8.456;2022-07-24T15:12:27;35.10;34.00
11387;DHT22;5748;53.102;8.456;2022-07-24T15:14:54;35.10;34.10
11387;DHT22;5748;53.102;8.456;2022-07-24T15:17:21;35.10;34.20
11387;DHT22;5748;53.102;8.456;2022-07-24T15:19:48;35.10;34.40
11387;DHT22;5748;53.102;8.456;2022-07-24T15:22:15;35.10;34.40
11387;DHT22;5748;53.102;8.456;2022-07-24T15:24:42;35.10;34.30
11387;DHT22;5748;53.102;8.456;2022-07-24T15:27:09;35.10;34.50
11387;DHT22;5748;53.102;8.456;2022-07-24T15:29:37;35.10;34.50
11387;DHT22;5748;53.102;8.456;2022-07-24T15:32:04;35.10;34.50
11387;DHT22;5748;53.102;8.456;2022-07-24T15:34:31;35.10;34.40
11387;DHT22;5748;53.102;8.456;2022-07-24T15:36:58;35.20;34.60
11387;DHT22;5748;53.102;8.456;2022-07-24T15:39:25;35.20;34.60
11387;DHT22;5748;53.102;8.456;2022-07-24T15:41:52;35.10;34.40
11387;DHT22;5748;53.102;8.456;2022-07-24T15:44:21;35.10;34.40
11387;DHT22;5748;53.102;8.456;2022-07-24T15:46:49;35.00;34.40
11387;DHT22;5748;53.102;8.456;2022-07-24T15:49:16;35.00;34.60
11387;DHT22;5748;53.102;8.456;2022-07-24T15:51:43;34.90;34.60
11387;DHT22;5748;53.102;8.456;2022-07-24T15:54:10;34.90;34.70
11387;DHT22;5748;53.102;8.456;2022-07-24T15:56:37;34.90;34.70
11387;DHT22;5748;53.102;8.456;2022-07-24T15:59:07;34.80;34.70
11387;DHT22;5748;53.102;8.456;2022-07-24T16:01:34;34.80;34.80
11387;DHT22;5748;53.102;8.456;2022-07-24T16:04:02;34.70;34.70
11387;DHT22;5748;53.102;8.456;2022-07-24T16:06:29;34.60;34.80
11387;DHT22;5748;53.102;8.456;2022-07-24T16:08:56;34.60;34.90
11387;DHT22;5748;53.102;8.456;2022-07-24T16:11:23;34.50;35.10
11387;DHT22;5748;53.102;8.456;2022-07-24T16:13:50;34.50;35.10
11387;DHT22;5748;53.102;8.456;2022-07-24T16:16:17;34.40;35.20
11387;DHT22;5748;53.102;8.456;2022-07-24T16:18:44;34.40;35.30
11387;DHT22;5748;53.102;8.456;2022-07-24T16:21:12;34.30;35.40
11387;DHT22;5748;53.102;8.456;2022-07-24T16:23:39;34.30;35.50
11387;DHT22;5748;53.102;8.456;2022-07-24T16:26:06;34.30;35.50
11387;DHT22;5748;53.102;8.456;2022-07-24T16:28:34;34.20;35.60
11387;DHT22;5748;53.102;8.456;2022-07-24T16:31:01;34.20;35.70
11387;DHT22;5748;53.102;8.456;2022-07-24T16:33:28;34.10;35.60
11387;DHT22;5748;53.102;8.456;2022-07-24T16:35:55;34.10;35.70
11387;DHT22;5748;53.102;8.456;2022-07-24T16:38:23;34.00;35.80
11387;DHT22;5748;53.102;8.456;2022-07-24T16:40:51;33.90;36.20
11387;DHT22;5748;53.102;8.456;2022-07-24T16:43:18;33.90;36.10
11387;DHT22;5748;53.102;8.456;2022-07-24T16:45:45;33.90;36.30
11387;DHT22;5748;53.102;8.456;2022-07-24T16:48:13;33.80;36.20
11387;DHT22;5748;53.102;8.456;2022-07-24T16:50:40;33.80;36.70
11387;DHT22;5748;53.102;8.456;2022-07-24T16:53:08;33.80;36.60
11387;DHT22;5748;53.102;8.456;2022-07-24T16:55:37;33.80;36.40
11387;DHT22;5748;53.102;8.456;2022-07-24T16:58:03;33.70;36.40
11387;DHT22;5748;53.102;8.456;2022-07-24T17:00:31;33.70;36.50
11387;DHT22;5748;53.102;8.456;2022-07-24T17:02:58;33.70;36.60
11387;DHT22;5748;53.102;8.456;2022-07-24T17:05:25;33.70;36.60
11387;DHT22;5748;53.102;8.456;2022-07-24T17:07:52;33.60;36.60
11387;DHT22;5748;53.102;8.456;2022-07-24T17:10:19;33.70;36.80
11387;DHT22;5748;53.102;8.456;2022-07-24T17:12:47;33.60;36.70
11387;DHT22;5748;53.102;8.456;2022-07-24T17:15:16;33.60;36.80
11387;DHT22;5748;53.102;8.456;2022-07-24T17:17:43;33.50;36.80
11387;DHT22;5748;53.102;8.456;2022-07-24T17:20:28;33.50;36.80
11387;DHT22;5748;53.102;8.456;2022-07-24T17:22:55;33.50;36.80
11387;DHT22;5748;53.102;8.456;2022-07-24T17:25:22;33.50;37.00
11387;DHT22;5748;53.102;8.456;2022-07-24T17:27:51;33.50;37.10
11387;DHT22;5748;53.102;8.456;2022-07-24T17:30:19;33.40;37.20
11387;DHT22;5748;53.102;8.456;2022-07-24T17:32:46;33.40;37.10
11387;DHT22;5748;53.102;8.456;2022-07-24T17:35:14;33.30;37.40